Time;durP1;ratioP1;P1;durP2;ratioP2;P2;SDS_P1;SDS_P2;PMS_P1;PMS_P2;Temp;Humidity;BMP_temperature;BMP_pressure;BME280_temperature;BME280_humidity;BME280_pressure;Samples;Min_cycle;Max_cycle;Signal;HPM_P1;HPM_P2
2023/07/26 00:01:53;;;;;;;14.35;4.97;;;;;;;33.32;31.63;93921.69;5097622;28;20088;-80
2023/07/26 00:04:19;;;;;;;10.68;4.97;;;;;;;33.05;32.08;93918.47;5098406;28;20039;-79
2023/07/26 00:06:44;;;;;;;10.60;4.82;;;;;;;33.05;32.51;93922.06;5107131;28;20023;-79
2023/07/26 00:09:10;;;;;;;11.50;5.05;;;;;;;32.88;32.53;93914.53;5099596;28;20111;-79
2023/07/26 00:11:36;;;;;;;17.27;6.78;;;;;;;32.87;33.09;93915.88;5099038;28;20071;-79
2023/07/26 00:14:03;;;;;;;14.25;6.10;;;;;;;32.86;32.87;93916.47;5123980;27;20028;-80
2023/07/26 00:16:30;;;;;;;12.10;5.40;;;;;;;32.78;33.12;93906.03;5122561;27;20496;-80
2023/07/26 00:18:56;;;;;;;8.52;5.10;;;;;;;32.81;32.86;93909.03;5106417;28;20527;-80
2023/07/26 00:21:22;;;;;;;10.10;5.07;;;;;;;32.79;33.29;93903.94;5116931;27;20098;-80
2023/07/26 00:23:47;;;;;;;10.82;5.20;;;;;;;32.85;33.20;93910.03;5108729;28;20110;-80
2023/07/26 00:26:12;;;;;;;9.80;5.38;;;;;;;32.75;33.53;93906.53;5114764;27;20482;-80
2023/07/26 00:28:38;;;;;;;9.45;5.35;;;;;;;32.77;33.39;93900.97;5097197;28;20103;-80
2023/07/26 00:31:03;;;;;;;12.82;5.35;;;;;;;32.76;33.50;93899.47;5121674;27;20035;-81
2023/07/26 00:33:28;;;;;;;10.23;4.75;;;;;;;32.71;33.42;93903.41;5107123;28;20130;-81
2023/07/26 00:35:54;;;;;;;8.48;5.00;;;;;;;32.71;33.49;93909.09;5094435;28;20032;-81
2023/07/26 00:38:19;;;;;;;11.10;5.32;;;;;;;32.65;33.61;93889.50;5101013;28;20027;-81
2023/07/26 00:40:45;;;;;;;10.65;5.15;;;;;;;32.60;33.77;93892.69;5107750;28;20028;-81
2023/07/26 00:43:10;;;;;;;9.75;4.88;;;;;;;32.53;33.81;93891.56;5101672;28;20089;-81
2023/07/26 00:45:37;;;;;;;11.23;5.30;;;;;;;32.44;33.72;93890.25;5095529;28;20031;-81
2023/07/26 00:48:03;;;;;;;13.65;4.93;;;;;;;32.44;33.91;93884.56;5091432;28;20035;-81
2023/07/26 00:50:28;;;;;;;12.57;5.32;;;;;;;32.40;33.91;93883.53;5093909;28;20023;-82
2023/07/26 00:52:54;;;;;;;10.35;5.68;;;;;;;32.35;34.19;93882.53;5092811;28;20388;-81
2023/07/26 00:55:19;;;;;;;8.10;4.97;;;;;;;32.34;34.64;93889.56;5101754;28;20042;-81
2023/07/26 00:57:46;;;;;;;10.25;5.18;;;;;;;32.30;34.49;93877.91;5095455;28;20032;-81
2023/07/26 01:00:12;;;;;;;12.75;5.57;;;;;;;32.29;34.86;93882.09;5094752;28;20474;-81
2023/07/26 01:02:37;;;;;;;11.10;5.28;;;;;;;32.24;34.63;93880.31;5099274;28;20038;-81
2023/07/26 01:05:04;;;;;;;9.77;5.00;;;;;;;32.12;34.74;93879.50;5096009;27;20028;-81
2023/07/26 01:08:08;;;;;;;10.55;5.22;;;;;;;32.04;35.02;93893.88;5106491;28;20031;-81
2023/07/26 01:10:38;;;;;;;10.13;5.15;;;;;;;32.09;35.06;93866.47;5098011;28;20024;-81
2023/07/26 01:13:17;;;;;;;12.07;5.43;;;;;;;32.11;35.17;93892.19;5099548;28;20020;-81
2023/07/26 01:15:45;;;;;;;12.27;5.47;;;;;;;32.09;35.22;93884.28;5102090;28;20027;-81
2023/07/26 01:18:13;;;;;;;8.43;4.50;;;;;;;31.99;35.14;93872.94;5105504;28;20050;-82
2023/07/26 01:20:39;;;;;;;11.10;5.15;;;;;;;31.87;35.69;93877.03;5105408;27;20417;-82
2023/07/26 01:23:04;;;;;;;7.88;4.70;;;;;;;31.65;35.64;93870.53;5105579;28;20043;-82
2023/07/26 01:25:30;;;;;;;16.73;5.47;;;;;;;31.53;36.10;93859.06;5105545;28;20023;-81
2023/07/26 01:27:55;;;;;;;9.15;4.78;;;;;;;31.64;36.13;93858.41;5095283;28;20658;-81
2023/07/26 01:30:22;;;;;;;11.25;5.88;;;;;;;31.83;35.71;93862.56;5102750;28;20028;-83
2023/07/26 01:32:50;;;;;;;13.10;5.50;;;;;;;31.80;35.77;93861.69;5105853;28;20051;-82
2023/07/26 01:35:16;;;;;;;11.50;5.15;;;;;;;31.84;35.82;93852.69;5104140;28;20020;-83
2023/07/26 01:37:42;;;;;;;11.93;4.93;;;;;;;31.98;35.09;93842.31;5101369;28;20456;-81
2023/07/26 01:40:08;;;;;;;13.65;5.53;;;;;;;31.87;35.62;93857.91;5103766;28;20044;-81
2023/07/26 01:42:34;;;;;;;13.13;5.40;;;;;;;31.89;35.31;93829.66;5105900;28;20570;-81
2023/07/26 01:45:03;;;;;;;9.40;5.15;;;;;;;32.01;35.19;93837.53;5087493;28;20028;-83
2023/07/26 01:47:29;;;;;;;10.25;5.00;;;;;;;32.07;34.99;93840.78;5098742;28;20024;-80
2023/07/26 01:49:54;;;;;;;10.85;5.47;;;;;;;32.05;35.43;93838.50;5099718;28;20074;-81
2023/07/26 01:52:20;;;;;;;13.25;5.47;;;;;;;31.89;35.52;93834.59;5104870;28;20047;-81
2023/07/26 01:54:46;;;;;;;11.60;5.28;;;;;;;31.88;35.50;93830.97;5096306;28;20048;-81
2023/07/26 01:57:11;;;;;;;10.38;5.32;;;;;;;31.80;36.00;93838.94;5098939;28;20024;-83
2023/07/26 01:59:36;;;;;;;10.43;5.35;;;;;;;31.80;36.21;93830.44;5106927;28;20096;-83
2023/07/26 02:02:02;;;;;;;11.00;5.90;;;;;;;31.80;36.18;93830.44;5105286;28;20046;-81
2023/07/26 02:04:27;;;;;;;11.88;5.60;;;;;;;31.86;36.16;93828.00;5093316;28;20649;-81
2023/07/26 02:06:53;;;;;;;9.57;5.80;;;;;;;31.84;35.87;93812.94;5095194;28;20027;-81
2023/07/26 02:09:19;;;;;;;14.98;5.47;;;;;;;31.83;36.31;93819.94;5100713;28;20032;-81
2023/07/26 02:11:44;;;;;;;10.80;5.80;;;;;;;31.81;36.26;93820.56;5099251;28;20023;-81
2023/07/26 02:14:10;;;;;;;10.52;5.03;;;;;;;31.76;36.45;93830.09;5104564;28;20019;-81
2023/07/26 02:16:35;;;;;;;13.43;5.40;;;;;;;31.64;36.33;93815.81;5101562;28;20039;-82
2023/07/26 02:19:00;;;;;;;12.73;6.43;;;;;;;31.63;36.68;93833.47;5083732;28;20028;-82
2023/07/26 02:21:26;;;;;;;10.75;6.03;;;;;;;31.60;36.84;93834.66;5104313;28;20447;-82
2023/07/26 02:23:51;;;;;;;16.08;5.95;;;;;;;31.49;37.03;93832.47;5104344;28;20035;-82
2023/07/26 02:26:16;;;;;;;12.43;5.75;;;;;;;31.25;37.21;93854.94;5100751;28;20460;-82
2023/07/26 02:28:42;;;;;;;13.00;5.93;;;;;;;31.15;37.14;93857.03;5093542;28;20019;-82
2023/07/26 02:31:07;;;;;;;9.90;5.32;;;;;;;31.22;37.14;93853.28;5105285;28;20019;-82
2023/07/26 02:33:33;;;;;;;11.48;5.72;;;;;;;31.21;37.28;93843.28;5094970;28;20054;-82
2023/07/26 02:35:59;;;;;;;9.50;5.75;;;;;;;31.42;36.82;93846.22;5119437;27;20119;-82
2023/07/26 02:38:25;;;;;;;12.15;5.70;;;;;;;31.38;37.14;93848.06;5118639;28;20028;-82
2023/07/26 02:40:51;;;;;;;13.75;5.60;;;;;;;31.33;37.43;93849.84;5105406;28;20028;-81
2023/07/26 02:43:16;;;;;;;12.32;6.47;;;;;;;31.27;37.14;93840.16;5108139;28;20028;-82
2023/07/26 02:45:42;;;;;;;12.07;5.63;;;;;;;31.19;37.34;93865.81;5073699;28;20081;-82
2023/07/26 02:48:08;;;;;;;10.40;5.68;;;;;;;31.05;37.79;93853.47;5079822;28;20027;-82
2023/07/26 02:50:33;;;;;;;12.45;5.95;;;;;;;30.97;37.94;93864.22;5086599;28;20031;-83
2023/07/26 02:52:59;;;;;;;9.30;6.55;;;;;;;30.98;37.71;93871.41;5087131;28;20038;-82
2023/07/26 02:55:24;;;;;;;15.45;6.05;;;;;;;31.10;37.65;93886.47;5104825;28;20023;-83
2023/07/26 02:57:50;;;;;;;10.00;5.30;;;;;;;30.93;37.80;93887.38;5081375;28;20468;-82
2023/07/26 03:00:15;;;;;;;11.25;5.60;;;;;;;30.77;38.23;93880.50;5092374;28;20458;-83
2023/07/26 03:02:41;;;;;;;8.52;5.53;;;;;;;30.60;38.63;93873.59;5103895;28;20031;-81
2023/07/26 03:05:08;;;;;;;11.80;5.60;;;;;;;30.61;38.30;93880.00;5089314;28;20032;-83
2023/07/26 03:07:33;;;;;;;12.27;5.53;;;;;;;30.55;38.49;93888.81;5093887;28;20038;-83
2023/07/26 03:09:58;;;;;;;10.85;5.40;;;;;;;30.58;38.53;93878.38;5091895;28;20024;-80
2023/07/26 03:12:24;;;;;;;12.85;5.63;;;;;;;30.47;38.32;93870.47;5085483;28;20043;-81
2023/07/26 03:14:49;;;;;;;11.32;5.95;;;;;;;30.37;38.68;93870.44;5090562;28;20032;-81
2023/07/26 03:17:15;;;;;;;20.25;6.10;;;;;;;30.37;38.82;93890.28;5102036;28;20032;-82
2023/07/26 03:19:40;;;;;;;11.10;6.00;;;;;;;30.32;38.91;93862.97;5103392;28;20024;-82
2023/07/26 03:22:05;;;;;;;14.13;5.45;;;;;;;30.11;39.19;93869.19;5104458;28;20023;-82
2023/07/26 03:24:31;;;;;;;9.00;5.68;;;;;;;30.12;39.32;93856.53;5113908;28;20102;-82
2023/07/26 03:26:56;;;;;;;11.10;5.78;;;;;;;30.10;39.21;93867.66;5086640;28;20036;-83
2023/07/26 03:29:22;;;;;;;10.57;6.15;;;;;;;30.02;39.46;93862.13;5105858;28;20067;-83
2023/07/26 03:31:47;;;;;;;10.15;5.43;;;;;;;30.02;39.32;93878.38;5092074;28;20039;-83
2023/07/26 03:34:12;;;;;;;14.82;6.45;;;;;;;30.12;39.44;93873.53;5103924;28;20031;-82
2023/07/26 03:36:38;;;;;;;14.10;5.63;;;;;;;30.25;39.00;93872.34;5100343;28;20074;-82
2023/07/26 03:39:03;;;;;;;10.57;5.93;;;;;;;30.17;39.10;93875.34;5124295;27;20035;-84
2023/07/26 03:41:29;;;;;;;11.63;6.00;;;;;;;30.12;39.16;93873.53;5105958;28;20103;-83
2023/07/26 03:43:54;;;;;;;10.10;5.90;;;;;;;30.00;39.33;93873.31;5102307;28;20551;-82
2023/07/26 03:46:19;;;;;;;14.60;5.97;;;;;;;29.89;39.40;93871.03;5069868;28;20039;-83
2023/07/26 03:48:45;;;;;;;13.93;6.03;;;;;;;29.78;39.77;93871.59;5107127;28;20455;-83
2023/07/26 03:51:10;;;;;;;11.95;6.35;;;;;;;29.74;40.11;93883.34;5107122;28;20482;-84
2023/07/26 03:53:36;;;;;;;8.38;5.57;;;;;;;29.79;39.92;93878.75;5105823;28;20028;-82
2023/07/26 03:56:01;;;;;;;15.20;5.85;;;;;;;29.79;39.56;93888.00;5107644;28;20024;-82
2023/07/26 03:58:26;;;;;;;15.43;6.00;;;;;;;29.75;39.65;93892.59;5104508;27;20038;-83
2023/07/26 04:00:52;;;;;;;13.40;6.03;;;;;;;29.82;39.64;93903.81;5108250;28;20019;-83
2023/07/26 04:03:17;;;;;;;14.10;6.03;;;;;;;29.76;39.54;93902.56;5106107;28;20032;-83
2023/07/26 04:05:43;;;;;;;17.48;6.30;;;;;;;29.79;39.38;93904.97;5108681;28;20580;-83
2023/07/26 04:08:08;;;;;;;12.40;5.95;;;;;;;29.84;39.13;93897.56;5097726;28;20024;-83
2023/07/26 04:10:33;;;;;;;16.45;6.50;;;;;;;29.83;39.50;93893.97;5105576;28;20036;-84
2023/07/26 04:12:59;;;;;;;11.93;5.53;;;;;;;29.82;39.37;93900.22;5099463;28;20114;-84
2023/07/26 04:15:24;;;;;;;15.00;6.25;;;;;;;29.88;39.09;93907.13;5099187;28;20024;-84
2023/07/26 04:17:50;;;;;;;10.85;6.05;;;;;;;29.91;39.42;93898.78;5099614;27;20093;-83
2023/07/26 04:20:15;;;;;;;15.38;5.65;;;;;;;29.96;39.26;93890.00;5106715;28;20099;-84
2023/07/26 04:22:40;;;;;;;12.98;6.28;;;;;;;30.00;39.47;93887.47;5109368;28;20141;-84
2023/07/26 04:25:06;;;;;;;13.70;5.85;;;;;;;30.08;39.46;93893.75;5108926;28;20056;-85
2023/07/26 04:27:32;;;;;;;15.93;6.30;;;;;;;30.15;39.16;93892.16;5106784;28;20031;-84
2023/07/26 04:29:57;;;;;;;10.20;5.32;;;;;;;30.07;39.58;93885.84;5108042;28;20027;-83
2023/07/26 04:32:23;;;;;;;11.35;5.28;;;;;;;30.10;39.31;93873.31;5107387;28;20020;-85
2023/07/26 04:34:48;;;;;;;14.85;6.20;;;;;;;30.11;39.55;93892.63;5108496;28;20092;-82
2023/07/26 04:37:14;;;;;;;14.15;5.63;;;;;;;30.26;39.68;93894.44;5107820;27;20035;-84
2023/07/26 04:39:40;;;;;;;13.00;6.28;;;;;;;30.44;38.88;93886.56;5108275;28;20517;-86
2023/07/26 04:42:05;;;;;;;18.77;6.63;;;;;;;30.52;39.06;93894.94;5108118;28;20032;-83
2023/07/26 04:44:30;;;;;;;11.80;6.95;;;;;;;30.57;39.16;93882.56;5107422;28;20032;-85
2023/07/26 04:46:56;;;;;;;10.43;5.88;;;;;;;30.73;38.95;93874.53;5108966;28;20100;-83
2023/07/26 04:49:21;;;;;;;11.50;5.88;;;;;;;30.80;38.88;93863.03;5106836;28;20028;-84
2023/07/26 04:51:47;;;;;;;13.15;5.95;;;;;;;31.03;38.42;93887.38;5107832;28;20698;-83
2023/07/26 04:54:12;;;;;;;10.25;5.80;;;;;;;31.08;37.96;93875.72;5105811;28;20111;-83
2023/07/26 04:56:37;;;;;;;16.08;6.85;;;;;;;31.37;37.90;93886.28;5107418;28;20100;-83
2023/07/26 04:59:03;;;;;;;12.63;6.00;;;;;;;31.57;37.77;93889.84;5105996;28;20557;-85
2023/07/26 05:01:28;;;;;;;11.90;6.13;;;;;;;31.71;37.55;93870.94;5108557;28;20034;-84
2023/07/26 05:03:54;;;;;;;15.75;6.22;;;;;;;31.86;37.31;93884.09;5108227;28;20035;-83
2023/07/26 05:06:19;;;;;;;12.35;6.22;;;;;;;31.81;37.43;93880.22;5106426;28;20027;-83
2023/07/26 05:08:47;;;;;;;11.05;5.90;;;;;;;31.89;37.62;93874.38;5109116;28;20049;-85
2023/07/26 05:11:13;;;;;;;13.95;6.78;;;;;;;31.96;37.05;93879.84;5109773;28;20026;-83
2023/07/26 05:13:38;;;;;;;15.40;6.32;;;;;;;32.02;37.51;93871.00;5109180;28;20035;-86
2023/07/26 05:16:04;;;;;;;14.77;6.25;;;;;;;32.08;37.42;93877.09;5087202;28;20438;-87
2023/07/26 05:18:29;;;;;;;14.43;6.55;;;;;;;31.77;37.41;93885.56;5124003;27;20020;-88
2023/07/26 05:20:54;;;;;;;14.05;6.60;;;;;;;31.46;38.15;93874.16;5107684;28;20028;-85
2023/07/26 05:23:20;;;;;;;14.63;6.68;;;;;;;31.26;38.66;93878.41;5123564;27;20057;-86
2023/07/26 05:25:45;;;;;;;14.20;6.35;;;;;;;31.20;38.17;93881.53;5108187;28;20027;-85
2023/07/26 05:28:11;;;;;;;15.07;6.32;;;;;;;31.11;38.31;93874.50;5123044;27;20028;-87
2023/07/26 05:30:38;;;;;;;15.75;6.28;;;;;;;30.99;38.07;93879.31;5124124;27;20032;-87
2023/07/26 05:33:03;;;;;;;16.27;6.53;;;;;;;30.84;38.54;93876.75;5105383;28;20019;-88
2023/07/26 05:35:29;;;;;;;12.70;6.22;;;;;;;30.71;38.92;93877.22;5108441;28;20046;-88
2023/07/26 05:37:54;;;;;;;13.60;6.07;;;;;;;30.55;39.16;93883.13;5106998;27;20028;-87
2023/07/26 05:40:19;;;;;;;20.98;7.40;;;;;;;30.47;39.21;93874.03;5123792;27;20028;-88
2023/07/26 05:42:45;;;;;;;11.35;6.75;;;;;;;30.36;39.15;93878.19;5107740;28;20027;-88
2023/07/26 05:45:10;;;;;;;16.02;6.90;;;;;;;30.33;39.19;93876.53;5106083;28;20504;-88
2023/07/26 05:47:38;;;;;;;15.25;6.75;;;;;;;30.35;38.84;93879.53;5108094;28;20079;-88
2023/07/26 05:50:06;;;;;;;14.52;6.47;;;;;;;30.27;39.15;93861.16;5106732;28;20046;-87
2023/07/26 05:52:31;;;;;;;16.13;6.75;;;;;;;30.18;39.17;93861.91;5108270;28;20028;-88
2023/07/26 05:54:56;;;;;;;16.35;7.07;;;;;;;30.15;39.05;93875.91;5122163;27;20020;-87
2023/07/26 05:57:22;;;;;;;15.23;7.13;;;;;;;30.10;39.32;93870.50;5108175;28;20401;-88
2023/07/26 05:59:47;;;;;;;13.85;6.63;;;;;;;30.13;39.52;93861.59;5122401;27;20032;-82
2023/07/26 06:02:13;;;;;;;16.15;6.57;;;;;;;30.01;39.08;93860.63;5107110;28;20059;-85
2023/07/26 06:04:38;;;;;;;14.98;7.10;;;;;;;29.98;39.29;93856.16;5107126;28;20035;-84
2023/07/26 06:07:04;;;;;;;13.90;6.40;;;;;;;30.05;38.48;93863.00;5106131;28;20027;-84
2023/07/26 06:09:30;;;;;;;11.68;6.53;;;;;;;30.10;37.87;93864.81;5107632;28;20103;-85
2023/07/26 06:11:55;;;;;;;12.80;6.57;;;;;;;30.06;37.89;93856.03;5121648;27;20011;-84
2023/07/26 06:14:21;;;;;;;15.52;7.03;;;;;;;30.04;37.90;93862.28;5112032;28;20011;-84
2023/07/26 06:16:47;;;;;;;16.08;6.65;;;;;;;30.00;37.38;93861.97;5105757;28;20063;-84
2023/07/26 06:19:12;;;;;;;14.32;5.40;;;;;;;29.93;29.34;93860.00;5107265;28;20494;-83
2023/07/26 06:21:38;;;;;;;19.25;6.97;;;;;;;29.94;33.50;93863.59;5106444;28;20027;-87
2023/07/26 06:24:03;;;;;;;16.00;5.85;;;;;;;29.98;31.30;93856.16;5121939;27;20023;-84
2023/07/26 06:26:29;;;;;;;13.48;5.43;;;;;;;29.99;30.74;93868.97;5107183;28;20020;-84
2023/07/26 06:28:54;;;;;;;17.75;6.15;;;;;;;30.04;30.91;93853.03;5121593;27;20107;-84
2023/07/26 06:31:20;;;;;;;18.50;5.32;;;;;;;30.10;29.16;93896.00;5107245;28;20027;-85
2023/07/26 06:33:45;;;;;;;15.32;5.72;;;;;;;30.14;30.69;93863.09;5105609;28;20417;-84
2023/07/26 06:36:11;;;;;;;16.55;6.35;;;;;;;30.24;29.92;93851.78;5107265;28;20051;-84
2023/07/26 06:38:36;;;;;;;14.60;5.05;;;;;;;30.66;29.83;93842.84;5106043;28;20027;-83
2023/07/26 06:41:02;;;;;;;13.73;5.03;;;;;;;31.46;28.32;93860.72;5106370;28;20051;-83
2023/07/26 06:43:27;;;;;;;17.35;5.60;;;;;;;32.30;27.68;93840.19;5106519;28;20031;-84
2023/07/26 06:45:53;;;;;;;17.27;5.40;;;;;;;32.50;27.38;93848.00;5105776;28;20111;-82
2023/07/26 06:48:19;;;;;;;12.23;4.93;;;;;;;33.29;26.47;93840.31;5123206;28;20099;-83
2023/07/26 06:50:45;;;;;;;17.83;5.30;;;;;;;33.01;25.96;93848.50;5103603;28;20038;-83
2023/07/26 06:53:10;;;;;;;17.20;5.75;;;;;;;32.57;26.03;93854.81;5107251;28;20016;-84
2023/07/26 06:55:36;;;;;;;15.63;6.10;;;;;;;32.71;26.80;93852.19;5104954;28;20027;-83
2023/07/26 06:58:02;;;;;;;14.95;5.63;;;;;;;32.95;26.25;93847.38;5105304;28;20054;-83
2023/07/26 07:00:27;;;;;;;13.60;5.18;;;;;;;33.53;25.84;93863.91;5105925;28;20500;-83
2023/07/26 07:03:00;;;;;;;15.48;4.90;;;;;;;33.53;25.51;93858.97;5121842;28;20024;-82
2023/07/26 07:05:27;;;;;;;12.38;5.20;;;;;;;34.12;25.22;93855.44;5122286;28;20194;-83
2023/07/26 07:07:52;;;;;;;16.38;5.43;;;;;;;33.78;25.58;93863.34;5103977;28;20034;-83
2023/07/26 07:10:18;;;;;;;10.40;5.25;;;;;;;33.36;26.41;93856.41;5107100;28;20024;-83
2023/07/26 07:12:43;;;;;;;17.73;5.10;;;;;;;33.91;25.76;93862.00;5108934;28;20028;-84
2023/07/26 07:15:09;;;;;;;15.05;4.78;;;;;;;33.76;25.97;93860.34;5110896;28;20053;-84
2023/07/26 07:17:34;;;;;;;17.08;5.18;;;;;;;33.89;26.23;93859.72;5113298;28;20493;-83
2023/07/26 07:20:00;;;;;;;14.35;5.70;;;;;;;33.81;26.37;93864.94;5111809;28;20472;-83
2023/07/26 07:22:25;;;;;;;15.23;5.78;;;;;;;33.96;25.99;93858.78;5126275;27;20027;-83
2023/07/26 07:24:53;;;;;;;14.93;5.57;;;;;;;34.38;25.71;93871.28;5107673;28;20551;-83
2023/07/26 07:27:18;;;;;;;15.48;5.72;;;;;;;34.85;25.25;93862.66;5126442;27;20210;-83
2023/07/26 07:29:44;;;;;;;13.88;5.13;;;;;;;35.28;25.17;93862.25;5108966;28;20107;-83
2023/07/26 07:32:09;;;;;;;13.40;5.32;;;;;;;35.22;24.66;93879.06;5110896;28;20016;-83
2023/07/26 07:34:35;;;;;;;13.82;5.57;;;;;;;34.75;24.86;93870.63;5109482;28;20019;-83
2023/07/26 07:37:00;;;;;;;14.52;5.18;;;;;;;34.97;25.47;93874.78;5110026;28;20446;-83
2023/07/26 07:39:25;;;;;;;17.75;5.28;;;;;;;34.84;25.20;93869.72;5109651;28;20023;-82
2023/07/26 07:41:51;;;;;;;16.58;5.53;;;;;;;34.79;25.29;93870.84;5109061;28;20469;-82
2023/07/26 07:44:17;;;;;;;11.98;5.13;;;;;;;34.98;24.92;93864.13;5109922;28;20039;-83
2023/07/26 07:46:44;;;;;;;14.85;5.97;;;;;;;35.46;24.37;93866.16;5108141;28;20066;-83
2023/07/26 07:49:10;;;;;;;15.52;5.32;;;;;;;35.68;23.99;93868.78;5125787;27;20505;-83
2023/07/26 07:51:35;;;;;;;16.30;5.10;;;;;;;35.55;23.74;93858.78;5108307;28;20115;-82
2023/07/26 07:54:01;;;;;;;12.57;5.70;;;;;;;35.82;23.52;93860.97;5125752;27;20027;-82
2023/07/26 07:56:26;;;;;;;13.15;4.72;;;;;;;35.89;22.45;93865.63;5108817;28;20028;-83
2023/07/26 07:58:51;;;;;;;14.10;5.03;;;;;;;35.05;23.53;93858.13;5109282;28;20568;-83
2023/07/26 08:01:17;;;;;;;15.65;5.40;;;;;;;35.75;22.92;93867.72;5109735;27;20077;-83
2023/07/26 08:03:42;;;;;;;12.40;5.13;;;;;;;35.55;23.30;93867.34;5108010;28;20795;-82
2023/07/26 08:06:09;;;;;;;17.15;5.85;;;;;;;35.61;22.62;93859.88;5109920;28;20521;-83
2023/07/26 08:08:37;;;;;;;14.30;5.93;;;;;;;36.12;22.98;93876.19;5107743;27;20032;-83
2023/07/26 08:11:03;;;;;;;18.70;5.50;;;;;;;36.31;22.63;93858.63;5109815;28;20026;-82
2023/07/26 08:13:28;;;;;;;13.90;5.55;;;;;;;36.75;21.98;93850.13;5106805;28;20032;-82
2023/07/26 08:15:57;;;;;;;15.55;5.30;;;;;;;36.81;20.77;93856.13;5108605;28;20024;-82
2023/07/26 08:18:22;;;;;;;13.95;4.82;;;;;;;36.09;21.10;93855.31;5109175;28;20032;-82
2023/07/26 08:20:47;;;;;;;9.88;4.07;;;;;;;35.98;19.60;93843.97;5107922;28;20035;-83
2023/07/26 08:23:13;;;;;;;17.88;4.70;;;;;;;36.13;19.01;93854.78;5111552;28;20103;-83
2023/07/26 08:25:39;;;;;;;18.85;6.65;;;;;;;36.79;18.89;93858.91;5107533;28;20466;-83
2023/07/26 08:28:04;;;;;;;20.70;6.20;;;;;;;36.38;20.20;93851.81;5108060;28;20024;-84
2023/07/26 08:30:30;;;;;;;14.63;5.25;;;;;;;36.94;18.33;93847.56;5106304;28;20782;-84
2023/07/26 08:32:55;;;;;;;16.48;4.28;;;;;;;36.77;17.54;93850.97;5109060;28;20023;-83
2023/07/26 08:35:21;;;;;;;12.07;4.10;;;;;;;36.17;18.16;93852.13;5108414;28;20620;-83
2023/07/26 08:37:46;;;;;;;23.90;6.88;;;;;;;36.49;18.92;93849.53;5108052;27;20016;-83
2023/07/26 08:40:12;;;;;;;20.13;6.30;;;;;;;36.97;19.14;93845.53;5108879;28;20110;-83
2023/07/26 08:42:38;;;;;;;22.13;7.72;;;;;;;37.36;18.82;93848.19;5107694;28;20076;-82
2023/07/26 08:45:05;;;;;;;19.25;6.10;;;;;;;37.64;18.04;93845.19;5109093;28;20031;-85
2023/07/26 08:47:33;;;;;;;12.82;4.22;;;;;;;36.83;19.38;93839.09;5107553;28;20081;-84
2023/07/26 08:49:58;;;;;;;16.38;5.35;;;;;;;36.99;18.22;93839.91;5124812;27;20168;-84
2023/07/26 08:52:24;;;;;;;12.82;4.45;;;;;;;37.22;18.12;93841.72;5123767;27;20019;-84
2023/07/26 08:54:50;;;;;;;14.73;3.85;;;;;;;36.68;16.38;93832.63;5123893;27;20474;-84
2023/07/26 08:57:18;;;;;;;14.45;3.78;;;;;;;37.03;16.47;93840.09;5124328;27;20032;-84
2023/07/26 08:59:44;;;;;;;16.80;5.00;;;;;;;37.05;16.74;93834.50;5122869;27;20031;-84
2023/07/26 09:02:11;;;;;;;10.65;4.00;;;;;;;37.02;17.58;93858.69;5109176;28;20023;-84
2023/07/26 09:04:36;;;;;;;16.40;4.70;;;;;;;37.10;17.65;93841.13;5122372;27;20098;-83
2023/07/26 09:07:03;;;;;;;11.50;4.03;;;;;;;37.32;17.09;93845.09;5124543;27;20157;-83
2023/07/26 09:09:29;;;;;;;16.70;4.72;;;;;;;37.56;17.49;93856.25;5123006;27;20065;-84
2023/07/26 09:11:55;;;;;;;14.98;4.55;;;;;;;36.44;18.50;93851.44;5106954;28;20027;-83
2023/07/26 09:14:26;;;;;;;14.82;4.80;;;;;;;37.53;18.34;93843.97;5108268;28;20020;-84
2023/07/26 09:17:00;;;;;;;16.00;4.70;;;;;;;38.19;17.47;93844.84;5122348;27;20497;-82
2023/07/26 09:19:34;;;;;;;17.35;4.40;;;;;;;38.11;18.07;93842.38;5124273;27;20027;-83
2023/07/26 09:22:04;;;;;;;13.75;4.35;;;;;;;38.43;17.70;93843.09;5122558;27;20024;-83
2023/07/26 09:24:37;;;;;;;17.75;4.72;;;;;;;38.93;17.34;93858.16;5108756;28;20130;-83
2023/07/26 09:27:12;;;;;;;14.90;4.38;;;;;;;39.17;17.03;93844.13;5125220;27;20028;-83
2023/07/26 09:29:39;;;;;;;13.95;3.97;;;;;;;38.57;16.89;93845.84;5122941;27;20023;-83
2023/07/26 09:32:06;;;;;;;21.52;4.38;;;;;;;38.60;16.21;93858.91;5106910;28;20026;-82
2023/07/26 09:34:32;;;;;;;10.50;3.92;;;;;;;38.69;16.49;93859.97;5088221;28;20028;-83
2023/07/26 09:36:58;;;;;;;13.55;4.10;;;;;;;38.71;16.25;93854.31;5124049;27;20046;-83
2023/07/26 09:39:25;;;;;;;11.73;3.92;;;;;;;38.94;16.23;93856.78;5122056;27;20406;-83
2023/07/26 09:42:04;;;;;;;11.02;3.78;;;;;;;39.22;16.10;93847.88;5106512;28;20031;-83
2023/07/26 09:44:30;;;;;;;12.90;3.63;;;;;;;39.71;15.68;93852.75;5122828;27;20042;-83
2023/07/26 09:46:56;;;;;;;10.50;4.00;;;;;;;38.96;16.00;93859.75;5106737;28;20023;-83
2023/07/26 09:49:27;;;;;;;12.88;4.68;;;;;;;38.61;15.90;93871.13;5123661;27;20028;-83
2023/07/26 09:52:01;;;;;;;13.85;4.18;;;;;;;38.60;16.05;93838.81;5121790;27;20032;-82
2023/07/26 09:54:28;;;;;;;12.32;4.22;;;;;;;38.82;15.97;93841.91;5124143;27;20027;-83
2023/07/26 09:56:57;;;;;;;11.20;3.60;;;;;;;39.09;15.92;93840.88;5122206;27;20041;-82
2023/07/26 09:59:29;;;;;;;13.55;4.10;;;;;;;39.70;15.39;93859.91;5106051;28;20148;-82
2023/07/26 10:01:59;;;;;;;14.35;4.07;;;;;;;38.52;16.03;93836.31;5123476;27;20024;-82
2023/07/26 10:04:46;;;;;;;11.80;4.50;;;;;;;38.35;16.77;93844.88;5106275;28;20039;-83
2023/07/26 10:07:13;;;;;;;14.48;4.65;;;;;;;39.39;16.71;93844.28;5108011;28;20067;-82
2023/07/26 10:09:44;;;;;;;10.15;3.88;;;;;;;40.11;16.36;93842.06;5104462;28;20112;-82
2023/07/26 10:12:10;;;;;;;13.35;4.03;;;;;;;40.32;15.60;93846.44;5123096;27;20423;-82
2023/07/26 10:14:36;;;;;;;15.65;4.32;;;;;;;40.77;15.40;93839.41;5122170;27;20339;-83
2023/07/26 10:17:03;;;;;;;12.82;4.63;;;;;;;40.98;15.26;93826.47;5104916;28;20127;-83
2023/07/26 10:19:29;;;;;;;16.55;4.75;;;;;;;40.99;15.44;93831.53;5107316;28;20027;-84
2023/07/26 10:21:56;;;;;;;8.40;3.90;;;;;;;41.57;15.30;93834.16;5105826;28;20028;-83
2023/07/26 10:24:23;;;;;;;11.90;3.95;;;;;;;41.90;15.19;93828.00;5107471;28;20110;-83
2023/07/26 10:26:49;;;;;;;12.13;3.88;;;;;;;42.31;14.76;93825.59;5121093;27;20024;-83
2023/07/26 10:29:16;;;;;;;11.85;3.88;;;;;;;42.39;14.22;93832.34;5107313;28;20024;-83
2023/07/26 10:31:42;;;;;;;15.75;4.30;;;;;;;42.74;14.38;93838.38;5106909;28;20086;-83
2023/07/26 10:34:09;;;;;;;14.60;4.45;;;;;;;41.87;15.19;93840.19;5106999;28;20482;-82
2023/07/26 10:36:36;;;;;;;10.77;4.00;;;;;;;42.05;14.47;93832.06;5107133;28;20030;-82
2023/07/26 10:39:06;;;;;;;13.30;4.70;;;;;;;42.09;14.71;93817.72;5104310;28;20035;-83
2023/07/26 10:41:34;;;;;;;14.95;3.80;;;;;;;41.82;15.17;93829.94;5088582;28;20479;-83
2023/07/26 10:44:07;;;;;;;15.25;4.25;;;;;;;42.32;14.62;93821.28;5121003;28;20031;-83
2023/07/26 10:47:02;;;;;;;10.43;4.00;;;;;;;41.45;14.92;93822.25;5124488;27;20062;-82
2023/07/26 10:49:29;;;;;;;11.20;3.83;;;;;;;42.21;13.73;93808.72;5107394;28;20071;-83
2023/07/26 10:51:58;;;;;;;10.73;3.40;;;;;;;42.36;13.72;93807.72;5109966;28;20502;-81
2023/07/26 10:54:32;;;;;;;13.00;4.60;;;;;;;42.75;13.71;93808.06;5110906;28;20030;-84
2023/07/26 10:57:20;;;;;;;15.85;4.45;;;;;;;43.05;13.33;93808.88;5109178;28;20073;-82
2023/07/26 11:00:22;;;;;;;10.57;3.83;;;;;;;43.40;13.06;93806.84;5110455;28;20032;-84
2023/07/26 11:02:49;;;;;;;;;;;;;;;43.78;13.03;93804.13;5111216;28;20080;-83
2023/07/26 11:05:21;;;;;;;12.13;3.70;;;;;;;43.80;13.15;93809.97;5125043;27;19911;-83
2023/07/26 11:08:07;;;;;;;10.13;3.50;;;;;;;42.72;13.71;93798.59;5126705;27;20421;-84
2023/07/26 11:10:34;;;;;;;13.23;4.03;;;;;;;43.06;13.40;93809.59;5109569;28;20047;-83
2023/07/26 11:13:12;;;;;;;11.63;3.97;;;;;;;42.67;13.52;93803.53;5108941;28;20032;-83
2023/07/26 11:15:42;;;;;;;10.20;3.65;;;;;;;43.10;13.46;93812.59;5110284;28;20019;-84
2023/07/26 11:18:08;;;;;;;11.63;4.07;;;;;;;43.48;13.36;93815.72;5125073;27;20048;-84
2023/07/26 11:20:38;;;;;;;10.25;4.22;;;;;;;43.71;13.18;93803.25;5126611;27;20019;-88
2023/07/26 11:23:20;;;;;;;11.07;4.28;;;;;;;43.55;13.14;93808.66;5090752;28;20460;-85
2023/07/26 11:25:47;;;;;;;12.00;4.20;;;;;;;43.83;12.92;93805.69;5108538;28;20031;-84